Time;durP1;ratioP1;P1;durP2;ratioP2;P2;SDS_P1;SDS_P2;PMS_P1;PMS_P2;Temp;Humidity;BMP_temperature;BMP_pressure;BME280_temperature;BME280_humidity;BME280_pressure;Samples;Min_cycle;Max_cycle;Signal;HPM_P1;HPM_P2
2023/09/22 00:01:25;;;;;;;8.68;7.78;;;19.70;89.10;;;;;;6099956;23;20224;-80
2023/09/22 00:03:51;;;;;;;8.88;7.97;;;19.70;89.20;;;;;;6124752;23;20139;-80
2023/09/22 00:06:18;;;;;;;8.75;7.85;;;19.70;89.20;;;;;;6100221;23;20159;-81
2023/09/22 00:08:45;;;;;;;8.88;7.97;;;19.70;89.20;;;;;;6099747;23;20602;-81
2023/09/22 00:11:11;;;;;;;8.90;8.00;;;19.70;89.20;;;;;;6150268;22;20171;-80
2023/09/22 00:13:36;;;;;;;8.32;7.50;;;19.70;89.20;;;;;;6124543;23;20173;-82
2023/09/22 00:16:02;;;;;;;8.48;7.57;;;19.70;89.20;;;;;;6150652;22;20136;-80
2023/09/22 00:18:28;;;;;;;8.88;7.97;;;19.70;89.20;;;;;;6150233;23;20597;-80
2023/09/22 00:20:54;;;;;;;9.23;8.02;;;19.70;89.20;;;;;;6150740;23;20143;-80
2023/09/22 00:23:21;;;;;;;8.85;7.97;;;19.70;89.20;;;;;;6150925;22;20219;-81
2023/09/22 00:25:46;;;;;;;9.02;8.13;;;19.70;89.20;;;;;;6120330;22;20280;-80
2023/09/22 00:28:12;;;;;;;8.60;7.80;;;19.70;89.20;;;;;;6120837;23;20219;-81
2023/09/22 00:30:38;;;;;;;9.20;8.30;;;19.70;89.20;;;;;;6122168;23;20171;-82
2023/09/22 00:33:04;;;;;;;9.10;8.20;;;19.70;89.30;;;;;;6122249;23;20523;-82
2023/09/22 00:35:30;;;;;;;9.35;8.25;;;19.70;89.30;;;;;;6120688;23;20583;-81
2023/09/22 00:37:55;;;;;;;8.77;7.88;;;19.70;89.30;;;;;;6122024;23;20147;-83
2023/09/22 00:40:21;;;;;;;8.73;7.82;;;19.70;89.30;;;;;;6122075;23;20509;-82
2023/09/22 00:42:47;;;;;;;9.07;8.18;;;19.70;90.00;;;;;;6120656;23;20148;-80
2023/09/22 00:45:14;;;;;;;8.55;7.65;;;19.70;89.30;;;;;;6120261;23;20231;-81
2023/09/22 00:47:40;;;;;;;8.43;7.63;;;19.70;89.20;;;;;;6120153;23;20548;-82
2023/09/22 00:50:09;;;;;;;8.55;7.75;;;19.70;89.30;;;;;;6121194;23;20919;-81
2023/09/22 00:52:34;;;;;;;8.88;7.97;;;19.70;89.30;;;;;;6119854;23;20578;-81
2023/09/22 00:55:00;;;;;;;8.52;7.63;;;19.70;89.30;;;;;;6072003;23;20144;-80
2023/09/22 00:57:26;;;;;;;8.82;7.93;;;19.70;89.30;;;;;;6096516;23;20461;-80
2023/09/22 00:59:52;;;;;;;9.10;8.20;;;19.70;89.30;;;;;;6122104;23;20183;-82
2023/09/22 01:02:18;;;;;;;9.40;8.40;;;19.60;89.30;;;;;;6121778;23;20464;-81
2023/09/22 01:04:43;;;;;;;9.05;8.15;;;19.70;89.30;;;;;;6122203;23;20587;-81
2023/09/22 01:07:09;;;;;;;9.63;8.63;;;19.70;89.30;;;;;;6121911;23;20132;-84
2023/09/22 01:09:37;;;;;;;9.68;8.63;;;19.70;89.30;;;;;;6119534;23;20164;-82
2023/09/22 01:12:03;;;;;;;9.75;8.75;;;19.70;89.30;;;;;;6120381;23;20206;-85
2023/09/22 01:14:29;;;;;;;9.43;8.43;;;19.70;89.40;;;;;;6120732;23;20183;-81
2023/09/22 01:16:55;;;;;;;8.88;7.97;;;19.70;89.40;;;;;;6120608;23;20149;-80
2023/09/22 01:19:21;;;;;;;8.07;7.28;;;19.70;89.40;;;;;;6120362;23;20159;-79
2023/09/22 01:21:48;;;;;;;9.48;8.48;;;19.60;89.30;;;;;;6120432;23;20176;-83
2023/09/22 01:24:13;;;;;;;9.43;8.43;;;19.60;89.30;;;;;;6096343;23;20152;-82
2023/09/22 01:26:39;;;;;;;8.82;7.93;;;19.60;89.30;;;;;;6143905;23;20567;-83
2023/09/22 01:29:06;;;;;;;8.60;7.80;;;19.60;89.40;;;;;;6101256;23;20205;-83
2023/09/22 01:31:33;;;;;;;8.43;7.63;;;19.60;89.40;;;;;;6125760;23;20174;-82
2023/09/22 01:34:01;;;;;;;8.25;7.45;;;19.60;89.40;;;;;;6125913;23;20155;-80
2023/09/22 01:36:27;;;;;;;8.57;7.75;;;19.70;89.40;;;;;;6151238;22;20139;-82
2023/09/22 01:38:54;;;;;;;8.93;8.02;;;19.60;89.40;;;;;;6125336;23;20182;-83
2023/09/22 01:41:20;;;;;;;8.50;7.70;;;19.60;89.40;;;;;;6125247;23;20488;-82
2023/09/22 01:43:45;;;;;;;8.80;7.90;;;19.60;89.40;;;;;;6076930;23;20220;-81
2023/09/22 01:46:11;;;;;;;8.98;8.07;;;19.60;89.40;;;;;;6076830;23;20644;-82
2023/09/22 01:48:37;;;;;;;9.20;8.30;;;19.60;89.40;;;;;;6125117;23;20230;-83
2023/09/22 01:51:03;;;;;;;8.93;8.02;;;19.60;89.40;;;;;;6077109;23;20179;-83
2023/09/22 01:53:29;;;;;;;9.15;8.30;;;19.60;89.40;;;;;;6151482;22;20144;-82
2023/09/22 01:55:55;;;;;;;8.88;8.00;;;19.60;89.50;;;;;;6151746;22;20227;-80
2023/09/22 01:58:21;;;;;;;8.50;7.60;;;19.60;89.50;;;;;;6125397;23;20618;-81
2023/09/22 02:00:48;;;;;;;8.52;7.63;;;19.60;89.50;;;;;;6125236;23;20172;-81
2023/09/22 02:03:14;;;;;;;8.40;7.57;;;19.60;89.40;;;;;;6151764;22;20215;-82
2023/09/22 02:05:40;;;;;;;8.30;7.50;;;19.60;89.40;;;;;;6125755;23;20201;-83
2023/09/22 02:08:07;;;;;;;8.90;8.00;;;19.60;89.40;;;;;;6100238;23;20159;-82
2023/09/22 02:10:33;;;;;;;8.57;7.65;;;19.60;89.40;;;;;;6151385;22;20690;-82
2023/09/22 02:12:59;;;;;;;9.30;8.32;;;19.60;89.40;;;;;;6125294;23;20175;-81
2023/09/22 02:15:24;;;;;;;9.18;8.27;;;19.70;89.60;;;;;;6151438;22;20173;-84
2023/09/22 02:17:50;;;;;;;8.45;7.65;;;19.60;89.50;;;;;;6151542;22;20139;-83
2023/09/22 02:20:22;;;;;;;8.65;7.85;;;19.60;89.40;;;;;;6101135;23;20159;-82
2023/09/22 02:22:48;;;;;;;8.90;8.00;;;19.60;89.40;;;;;;6151648;23;20159;-81
2023/09/22 02:25:15;;;;;;;8.48;7.57;;;19.70;89.50;;;;;;6124797;22;20657;-80
2023/09/22 02:27:41;;;;;;;8.40;7.60;;;19.60;89.40;;;;;;6077114;23;20163;-81
2023/09/22 02:30:08;;;;;;;8.65;7.72;;;19.60;89.50;;;;;;6125409;23;20168;-83
2023/09/22 02:32:34;;;;;;;8.57;7.78;;;19.60;89.50;;;;;;6100635;23;20186;-81
2023/09/22 02:35:00;;;;;;;7.95;7.15;;;19.60;89.40;;;;;;6151164;23;20136;-80
2023/09/22 02:37:26;;;;;;;8.35;7.47;;;19.60;89.40;;;;;;6151379;22;20192;-80
2023/09/22 02:39:52;;;;;;;8.95;8.05;;;19.60;90.10;;;;;;6151221;22;20159;-81
2023/09/22 02:42:17;;;;;;;9.48;8.55;;;19.60;89.40;;;;;;6125151;23;20486;-80
2023/09/22 02:44:43;;;;;;;9.35;8.25;;;19.60;89.50;;;;;;6125176;23;20139;-82
2023/09/22 02:47:09;;;;;;;8.88;7.97;;;19.60;89.50;;;;;;6124967;23;20486;-83
2023/09/22 02:49:35;;;;;;;8.95;7.85;;;19.60;89.60;;;;;;6124893;23;20510;-80
2023/09/22 02:52:01;;;;;;;8.15;7.35;;;19.60;89.60;;;;;;6150880;22;20163;-79
2023/09/22 02:54:27;;;;;;;9.10;8.20;;;19.60;89.60;;;;;;6125158;23;20136;-83
2023/09/22 02:56:53;;;;;;;8.80;7.88;;;19.60;89.60;;;;;;6125239;23;20136;-82
2023/09/22 02:59:19;;;;;;;8.60;7.70;;;19.60;89.60;;;;;;6151514;22;20132;-83
2023/09/22 03:01:45;;;;;;;9.10;8.20;;;19.60;89.60;;;;;;6124851;23;20170;-81
2023/09/22 03:04:10;;;;;;;8.57;7.75;;;19.60;89.60;;;;;;6151104;22;20140;-84
2023/09/22 03:06:37;;;;;;;8.73;7.82;;;19.60;89.60;;;;;;6150947;22;20583;-82
2023/09/22 03:09:06;;;;;;;9.27;8.10;;;19.50;89.60;;;;;;6099831;23;20159;-80
2023/09/22 03:11:32;;;;;;;8.68;7.78;;;19.60;89.60;;;;;;6125966;23;20178;-80
2023/09/22 03:13:59;;;;;;;8.48;7.68;;;19.60;89.50;;;;;;6150634;23;20465;-81
2023/09/22 03:16:26;;;;;;;8.25;7.45;;;19.60;89.60;;;;;;6124929;23;20155;-82
2023/09/22 03:18:52;;;;;;;8.38;7.57;;;19.60;89.60;;;;;;6151258;22;20135;-81
2023/09/22 03:21:22;;;;;;;8.93;8.02;;;19.60;89.60;;;;;;6150847;23;20189;-82
2023/09/22 03:23:49;;;;;;;9.18;8.02;;;19.60;89.70;;;;;;6150755;22;20131;-81
2023/09/22 03:26:16;;;;;;;8.30;7.50;;;19.60;89.60;;;;;;6150206;22;20199;-80
2023/09/22 03:28:42;;;;;;;8.35;7.55;;;19.50;89.60;;;;;;6125069;23;20152;-81
2023/09/22 03:31:08;;;;;;;8.70;7.80;;;19.60;89.70;;;;;;6124571;23;20590;-80
2023/09/22 03:33:33;;;;;;;8.13;7.32;;;19.50;89.60;;;;;;6150726;22;20147;-80
2023/09/22 03:35:59;;;;;;;8.85;7.95;;;19.60;89.70;;;;;;6100344;23;20149;-82
2023/09/22 03:38:28;;;;;;;8.23;7.43;;;19.60;89.60;;;;;;6150451;22;20145;-81
2023/09/22 03:41:00;;;;;;;9.30;8.32;;;19.50;89.60;;;;;;6101919;23;20131;-80
2023/09/22 03:43:26;;;;;;;8.57;7.78;;;19.60;89.70;;;;;;6126128;23;20151;-83
2023/09/22 03:45:54;;;;;;;8.80;7.90;;;19.60;89.70;;;;;;6124740;23;20564;-83
2023/09/22 03:48:20;;;;;;;9.02;8.07;;;19.50;89.60;;;;;;6124471;23;20273;-83
2023/09/22 03:50:46;;;;;;;8.63;7.82;;;19.60;89.70;;;;;;6150340;23;20571;-83
2023/09/22 03:53:12;;;;;;;9.40;8.50;;;19.50;89.60;;;;;;6150536;22;20159;-83
2023/09/22 03:55:39;;;;;;;9.07;7.53;;;19.50;89.60;;;;;;6150687;22;20644;-82
2023/09/22 03:58:05;;;;;;;8.32;7.43;;;19.60;89.70;;;;;;6151107;22;20136;-81
2023/09/22 04:00:31;;;;;;;9.07;8.18;;;19.60;89.70;;;;;;6151608;22;20215;-83
2023/09/22 04:02:57;;;;;;;8.63;7.82;;;19.50;89.60;;;;;;6152337;22;20143;-81
2023/09/22 04:05:23;;;;;;;8.70;7.72;;;19.60;89.70;;;;;;6126028;23;20147;-80
2023/09/22 04:07:49;;;;;;;8.65;7.75;;;19.50;89.60;;;;;;6151292;22;20146;-82
2023/09/22 04:10:16;;;;;;;8.27;7.47;;;19.60;90.20;;;;;;6152153;22;20171;-82
2023/09/22 04:12:43;;;;;;;8.07;7.28;;;19.50;89.70;;;;;;6126010;23;20144;-82
2023/09/22 04:15:09;;;;;;;9.23;8.32;;;19.50;89.70;;;;;;6155915;22;20532;-82
2023/09/22 04:17:34;;;;;;;8.82;7.93;;;19.50;89.70;;;;;;6156125;22;20165;-82
2023/09/22 04:20:01;;;;;;;8.68;7.78;;;19.50;89.80;;;;;;6155628;22;20218;-80
2023/09/22 04:22:29;;;;;;;8.65;7.85;;;19.50;89.70;;;;;;6130291;23;20132;-80
2023/09/22 04:25:00;;;;;;;8.55;7.65;;;19.50;89.70;;;;;;6101725;23;20189;-82
2023/09/22 04:27:32;;;;;;;8.90;8.00;;;19.50;89.80;;;;;;6151446;22;20195;-83
2023/09/22 04:30:00;;;;;;;9.30;8.40;;;19.50;89.70;;;;;;6126594;23;20136;-81
2023/09/22 04:32:28;;;;;;;8.60;7.75;;;19.50;89.70;;;;;;6126438;23;20435;-80
2023/09/22 04:34:58;;;;;;;8.93;8.02;;;19.50;89.70;;;;;;6151235;22;20135;-83
2023/09/22 04:37:24;;;;;;;9.15;8.25;;;19.50;89.70;;;;;;6151081;22;20138;-81
2023/09/22 04:39:49;;;;;;;9.00;8.10;;;19.50;89.70;;;;;;6151297;22;20526;-83
2023/09/22 04:42:15;;;;;;;8.93;8.00;;;19.50;89.80;;;;;;6150447;22;20475;-80
2023/09/22 04:44:41;;;;;;;9.55;8.55;;;19.50;89.80;;;;;;6125309;23;20479;-81
2023/09/22 04:47:07;;;;;;;9.23;8.32;;;19.50;89.80;;;;;;6125587;23;20151;-83
2023/09/22 04:49:33;;;;;;;8.90;8.00;;;19.50;89.80;;;;;;6151377;23;20170;-81
2023/09/22 04:52:02;;;;;;;9.30;8.27;;;19.50;89.80;;;;;;6101125;23;20168;-83
2023/09/22 04:54:29;;;;;;;8.88;7.97;;;19.50;89.80;;;;;;6125614;23;20143;-79
2023/09/22 04:56:55;;;;;;;9.10;8.20;;;19.60;89.90;;;;;;6101234;23;20151;-81
2023/09/22 04:59:21;;;;;;;8.40;7.60;;;19.50;89.80;;;;;;6125556;23;20151;-83
2023/09/22 05:01:46;;;;;;;9.20;8.27;;;19.50;89.80;;;;;;6151693;22;20627;-82
2023/09/22 05:04:12;;;;;;;8.80;7.90;;;19.50;89.80;;;;;;6125860;23;20182;-81
2023/09/22 05:06:38;;;;;;;8.05;7.25;;;19.50;89.80;;;;;;6151460;22;20513;-81
2023/09/22 05:09:07;;;;;;;8.57;7.68;;;19.50;89.80;;;;;;6150338;23;20135;-82
2023/09/22 05:11:32;;;;;;;8.80;7.90;;;19.50;89.80;;;;;;6124967;23;20220;-82
2023/09/22 05:13:58;;;;;;;8.75;7.85;;;19.50;89.80;;;;;;6151209;22;20561;-81
2023/09/22 05:16:24;;;;;;;8.10;7.30;;;19.60;89.80;;;;;;6151569;22;20143;-80
2023/09/22 05:18:50;;;;;;;8.73;7.85;;;19.40;89.70;;;;;;6151405;22;20773;-80
2023/09/22 05:21:15;;;;;;;8.55;7.65;;;19.50;89.70;;;;;;6151548;22;20473;-82
2023/09/22 05:23:41;;;;;;;8.77;7.80;;;19.50;89.70;;;;;;6151407;22;20163;-81
2023/09/22 05:26:07;;;;;;;8.93;8.02;;;19.50;89.70;;;;;;6119957;22;20290;-81
2023/09/22 05:28:33;;;;;;;8.30;7.45;;;19.50;89.70;;;;;;6122079;23;20156;-80
2023/09/22 05:31:00;;;;;;;8.85;7.95;;;19.50;89.70;;;;;;6121756;23;20164;-81
2023/09/22 05:33:26;;;;;;;9.02;7.80;;;19.50;89.70;;;;;;6096365;23;20156;-82
2023/09/22 05:35:52;;;;;;;9.27;8.27;;;19.50;89.70;;;;;;6122012;23;20163;-81
2023/09/22 05:38:18;;;;;;;8.80;7.75;;;19.60;89.80;;;;;;6120555;23;20156;-81
2023/09/22 05:40:43;;;;;;;7.97;7.10;;;19.50;89.70;;;;;;6122054;23;20168;-82
2023/09/22 05:43:12;;;;;;;8.23;7.43;;;19.60;90.00;;;;;;6121860;23;20637;-80
2023/09/22 05:45:38;;;;;;;7.93;7.13;;;19.60;89.90;;;;;;6120326;23;20159;-79
2023/09/22 05:48:04;;;;;;;7.68;6.88;;;19.60;90.00;;;;;;6122279;23;20517;-79
2023/09/22 05:50:29;;;;;;;7.55;6.82;;;19.60;90.10;;;;;;6121955;23;20171;-80
2023/09/22 05:52:55;;;;;;;8.00;7.20;;;19.60;90.10;;;;;;6121998;23;20145;-80
2023/09/22 05:55:21;;;;;;;7.35;6.57;;;19.70;90.10;;;;;;6120616;23;20488;-80
2023/09/22 05:57:47;;;;;;;7.50;6.70;;;19.70;90.20;;;;;;6120437;23;20136;-80
2023/09/22 06:00:17;;;;;;;7.93;6.82;;;19.60;90.20;;;;;;6121917;23;20136;-81
2023/09/22 06:02:50;;;;;;;7.30;6.60;;;19.60;90.30;;;;;;6122113;23;20171;-82
2023/09/22 06:05:16;;;;;;;6.60;5.97;;;19.60;90.30;;;;;;6121862;23;20140;-80
2023/09/22 06:07:43;;;;;;;7.10;6.40;;;19.60;90.30;;;;;;6119449;23;20167;-79
2023/09/22 06:10:10;;;;;;;8.00;7.18;;;19.60;90.30;;;;;;6121754;23;20215;-82
2023/09/22 06:12:36;;;;;;;7.50;6.70;;;19.60;90.40;;;;;;6120079;23;20143;-82
2023/09/22 06:15:08;;;;;;;7.68;6.93;;;19.60;90.40;;;;;;6120707;23;20150;-81
2023/09/22 06:17:37;;;;;;;7.30;6.60;;;19.60;90.50;;;;;;6196727;23;20167;-80
2023/09/22 06:20:08;;;;;;;7.95;6.70;;;19.70;90.70;;;;;;6196846;23;20179;-83
2023/09/22 06:22:34;;;;;;;7.38;6.43;;;19.60;90.70;;;;;;6120183;23;20232;-80
2023/09/22 06:25:00;;;;;;;7.53;6.72;;;19.60;90.70;;;;;;6120034;23;20486;-80
2023/09/22 06:27:28;;;;;;;7.20;6.50;;;19.60;90.70;;;;;;6047223;23;20196;-80
2023/09/22 06:29:55;;;;;;;7.35;6.38;;;19.60;90.80;;;;;;6120594;23;20139;-83
2023/09/22 06:32:23;;;;;;;7.53;6.72;;;19.60;90.70;;;;;;6222451;23;20164;-80
2023/09/22 06:34:49;;;;;;;7.47;6.32;;;19.60;90.80;;;;;;6047164;23;20152;-79
2023/09/22 06:37:16;;;;;;;7.15;6.45;;;19.60;90.80;;;;;;6121373;23;20143;-83
2023/09/22 06:39:43;;;;;;;7.18;6.47;;;19.60;90.90;;;;;;6221682;23;20156;-80
2023/09/22 06:42:08;;;;;;;6.57;5.88;;;19.60;90.90;;;;;;6221678;23;20152;-81
2023/09/22 06:44:35;;;;;;;7.10;6.40;;;19.60;91.00;;;;;;6120246;23;20538;-79
2023/09/22 06:47:03;;;;;;;7.85;6.40;;;19.60;90.90;;;;;;6121731;23;20583;-83
2023/09/22 06:49:28;;;;;;;7.07;6.18;;;19.60;91.00;;;;;;6122067;23;20136;-83
2023/09/22 06:51:54;;;;;;;7.15;6.43;;;19.60;91.00;;;;;;6096107;23;20251;-80
2023/09/22 06:54:20;;;;;;;6.75;6.07;;;19.60;91.00;;;;;;6121798;23;20186;-82
2023/09/22 06:56:46;;;;;;;7.13;6.43;;;19.60;91.00;;;;;;6120428;23;20201;-80
2023/09/22 06:59:13;;;;;;;7.03;6.32;;;19.60;91.00;;;;;;6120080;23;20598;-83
2023/09/22 07:01:40;;;;;;;6.85;6.15;;;19.60;91.10;;;;;;6121422;23;20140;-80
2023/09/22 07:04:09;;;;;;;6.95;6.20;;;19.60;91.10;;;;;;6121600;23;20218;-81
2023/09/22 07:06:39;;;;;;;6.80;6.10;;;19.60;91.20;;;;;;6120061;23;20143;-81
2023/09/22 07:09:09;;;;;;;6.93;6.22;;;19.60;91.20;;;;;;6121105;23;20194;-83
2023/09/22 07:11:40;;;;;;;6.90;6.20;;;19.60;91.20;;;;;;6121813;23;20172;-83
2023/09/22 07:14:07;;;;;;;6.75;5.88;;;19.60;91.20;;;;;;6121298;23;20225;-80
2023/09/22 07:16:33;;;;;;;6.97;6.28;;;19.60;91.20;;;;;;6122024;23;20213;-83
2023/09/22 07:18:59;;;;;;;7.30;6.50;;;19.60;91.30;;;;;;6121561;23;20171;-81
2023/09/22 07:21:25;;;;;;;6.13;5.53;;;19.70;91.30;;;;;;6121642;23;20143;-82
2023/09/22 07:23:51;;;;;;;6.80;6.05;;;19.70;91.30;;;;;;6121642;23;20148;-82
2023/09/22 07:26:16;;;;;;;6.40;5.80;;;19.60;91.30;;;;;;6132125;23;20202;-83
2023/09/22 07:28:42;;;;;;;6.57;5.88;;;19.70;91.30;;;;;;6125201;23;20613;-80
2023/09/22 07:31:11;;;;;;;7.05;6.28;;;19.70;91.30;;;;;;6150752;22;20606;-81
2023/09/22 07:33:36;;;;;;;7.45;6.10;;;19.70;91.30;;;;;;6125223;23;20174;-82
2023/09/22 07:36:03;;;;;;;6.85;6.15;;;19.70;91.30;;;;;;6152031;22;20272;-82
2023/09/22 07:38:30;;;;;;;6.45;5.53;;;19.70;91.40;;;;;;6125649;23;20148;-83
2023/09/22 07:40:56;;;;;;;6.50;5.68;;;19.70;91.30;;;;;;6125979;23;20594;-81
2023/09/22 07:43:28;;;;;;;6.80;6.10;;;19.70;91.40;;;;;;6125815;23;20234;-80
2023/09/22 07:45:54;;;;;;;6.90;5.97;;;19.70;91.40;;;;;;6152224;22;20227;-83
2023/09/22 07:48:20;;;;;;;8.23;6.10;;;19.70;91.40;;;;;;6101655;23;20179;-82
2023/09/22 07:50:46;;;;;;;7.53;6.72;;;19.70;91.40;;;;;;6152197;22;20571;-83
2023/09/22 07:53:12;;;;;;;7.45;6.50;;;19.70;91.40;;;;;;6101298;23;20605;-83
2023/09/22 07:55:41;;;;;;;6.82;6.07;;;19.80;91.50;;;;;;6152139;22;20190;-82
2023/09/22 07:58:08;;;;;;;6.63;5.93;;;19.70;91.40;;;;;;6126426;23;20591;-81
2023/09/22 08:00:34;;;;;;;6.65;5.95;;;19.70;91.40;;;;;;6101657;23;20504;-83
2023/09/22 08:03:00;;;;;;;6.88;6.18;;;19.70;91.50;;;;;;6152153;22;20630;-82
2023/09/22 08:05:27;;;;;;;6.95;6.05;;;19.80;91.50;;;;;;6152077;22;20286;-80
2023/09/22 08:07:53;;;;;;;6.85;6.15;;;19.80;91.50;;;;;;6125092;23;20136;-81
2023/09/22 08:10:22;;;;;;;6.53;5.93;;;19.70;91.50;;;;;;6101536;23;20694;-81
2023/09/22 08:12:48;;;;;;;6.93;6.13;;;19.80;91.60;;;;;;6101840;23;20526;-81
2023/09/22 08:15:14;;;;;;;7.72;5.93;;;19.70;91.60;;;;;;6152272;22;20161;-83
2023/09/22 08:17:41;;;;;;;6.60;5.95;;;19.70;91.60;;;;;;6125649;23;20486;-82
2023/09/22 08:20:11;;;;;;;5.85;5.25;;;19.80;91.70;;;;;;6151623;22;20189;-81
2023/09/22 08:22:38;;;;;;;6.93;5.93;;;19.70;91.60;;;;;;6126508;23;20140;-80
2023/09/22 08:25:08;;;;;;;5.82;5.32;;;19.70;91.70;;;;;;6101904;23;20143;-80
2023/09/22 08:27:35;;;;;;;6.60;5.88;;;19.70;91.70;;;;;;6151421;22;20270;-82
2023/09/22 08:30:09;;;;;;;6.38;5.78;;;19.70;91.70;;;;;;6125626;23;20152;-83
2023/09/22 08:32:39;;;;;;;6.95;5.50;;;19.70;91.70;;;;;;6127597;23;20205;-82
2023/09/22 08:35:06;;;;;;;6.43;5.72;;;19.70;91.70;;;;;;6102073;23;20187;-80
2023/09/22 08:37:33;;;;;;;6.95;6.18;;;19.80;91.80;;;;;;6100988;23;20262;-82
2023/09/22 08:40:00;;;;;;;6.53;5.85;;;19.80;91.70;;;;;;6151742;23;20459;-81
2023/09/22 08:42:26;;;;;;;6.60;5.85;;;19.80;91.70;;;;;;6125411;23;20200;-79
2023/09/22 08:44:52;;;;;;;6.43;5.63;;;19.80;91.80;;;;;;6101042;23;20132;-80
2023/09/22 08:47:18;;;;;;;6.45;5.40;;;19.80;91.70;;;;;;6151688;23;20144;-83
2023/09/22 08:49:44;;;;;;;6.47;5.78;;;19.80;91.80;;;;;;6151354;22;20614;-82
2023/09/22 08:52:09;;;;;;;6.70;6.00;;;19.80;91.80;;;;;;6125556;23;20168;-82
2023/09/22 08:54:35;;;;;;;6.75;6.05;;;19.80;91.70;;;;;;6151475;22;20209;-80
2023/09/22 08:57:01;;;;;;;6.63;5.97;;;19.80;91.80;;;;;;6125889;23;20135;-79
2023/09/22 08:59:27;;;;;;;6.30;5.70;;;19.80;91.70;;;;;;6151344;23;20136;-81
2023/09/22 09:01:53;;;;;;;6.20;5.60;;;19.80;91.70;;;;;;6101191;23;20169;-81
2023/09/22 09:04:33;;;;;;;6.25;5.60;;;19.80;91.70;;;;;;6125754;23;20616;-81
2023/09/22 09:07:02;;;;;;;5.97;5.38;;;19.90;91.70;;;;;;6151695;22;20144;-81
2023/09/22 09:09:45;;;;;;;6.05;5.45;;;19.90;91.70;;;;;;6125218;23;20144;-82
2023/09/22 09:12:11;;;;;;;6.72;5.95;;;19.90;91.70;;;;;;6104284;23;20174;-82
2023/09/22 09:14:39;;;;;;;6.15;5.55;;;19.90;91.70;;;;;;6101470;23;20163;-80
2023/09/22 09:17:21;;;;;;;6.10;5.47;;;19.80;91.70;;;;;;6101552;23;20174;-82
2023/09/22 09:19:51;;;;;;;5.80;5.18;;;19.90;91.70;;;;;;6125530;23;20219;-82
2023/09/22 09:22:17;;;;;;;6.20;5.60;;;19.90;91.70;;;;;;6151184;23;20143;-82
2023/09/22 09:24:43;;;;;;;5.88;5.28;;;19.90;91.70;;;;;;6125441;23;20186;-83
2023/09/22 09:27:17;;;;;;;5.93;5.43;;;19.90;91.70;;;;;;6151105;22;20183;-82
2023/09/22 09:29:46;;;;;;;5.45;4.95;;;19.90;91.70;;;;;;6125337;23;20209;-80
2023/09/22 09:32:29;;;;;;;6.50;5.60;;;19.90;91.70;;;;;;6101821;23;20265;-83
2023/09/22 09:34:55;;;;;;;5.90;5.30;;;19.90;91.70;;;;;;6125761;23;20179;-82
2023/09/22 09:37:21;;;;;;;6.05;5.20;;;19.90;91.70;;;;;;6151346;22;20210;-81
2023/09/22 09:39:55;;;;;;;5.85;5.32;;;19.90;91.70;;;;;;6151287;22;20670;-81
2023/09/22 09:42:23;;;;;;;6.10;5.50;;;19.90;91.70;;;;;;6151850;22;20146;-82
2023/09/22 09:44:52;;;;;;;5.82;4.97;;;19.90;91.70;;;;;;6125596;23;20152;-83
2023/09/22 09:47:24;;;;;;;5.57;5.07;;;19.90;91.70;;;;;;6126153;23;20548;-81
2023/09/22 09:49:54;;;;;;;5.82;5.32;;;19.90;91.80;;;;;;6126168;23;20150;-83
2023/09/22 09:52:38;;;;;;;6.20;5.60;;;19.90;91.80;;;;;;6126086;23;20168;-80
2023/09/22 09:55:08;;;;;;;5.95;5.20;;;19.90;91.90;;;;;;6125286;23;20482;-82
2023/09/22 09:57:36;;;;;;;5.82;5.22;;;19.90;91.90;;;;;;6150949;22;20139;-81
2023/09/22 10:00:12;;;;;;;6.15;5.55;;;19.90;91.90;;;;;;6125728;23;20144;-83
2023/09/22 10:02:40;;;;;;;6.15;5.55;;;19.90;92.00;;;;;;6151269;22;20145;-80
2023/09/22 10:05:07;;;;;;;5.88;5.30;;;19.90;92.00;;;;;;6125481;23;20135;-81
2023/09/22 10:07:36;;;;;;;5.72;5.13;;;19.80;92.00;;;;;;6150510;22;20233;-80
2023/09/22 10:10:03;;;;;;;6.35;5.75;;;19.80;92.00;;;;;;6151271;22;20135;-83
2023/09/22 10:12:30;;;;;;;6.38;5.57;;;19.80;92.10;;;;;;6150939;23;20571;-84
2023/09/22 10:15:01;;;;;;;6.50;5.80;;;19.90;92.10;;;;;;6151267;23;20142;-81
2023/09/22 10:17:27;;;;;;;6.18;5.57;;;19.90;92.10;;;;;;6151254;22;20139;-80
2023/09/22 10:19:53;;;;;;;6.25;5.63;;;19.90;92.10;;;;;;6125846;23;20156;-84
2023/09/22 10:22:18;;;;;;;5.55;5.05;;;19.90;92.10;;;;;;6101203;23;20222;-83
2023/09/22 10:24:44;;;;;;;6.03;5.40;;;19.90;92.20;;;;;;6124942;23;20151;-82
2023/09/22 10:27:11;;;;;;;6.53;5.70;;;20.00;92.20;;;;;;6096328;23;20196;-83
2023/09/22 10:29:41;;;;;;;6.50;5.90;;;20.00;92.20;;;;;;6121789;23;20145;-81
2023/09/22 10:32:21;;;;;;;7.55;5.35;;;20.00;92.20;;;;;;6096807;23;20184;-81
2023/09/22 10:34:51;;;;;;;6.20;5.60;;;20.00;92.20;;;;;;6123500;23;20147;-82
2023/09/22 10:37:18;;;;;;;6.10;5.50;;;20.00;92.20;;;;;;6123075;23;20145;-83
2023/09/22 10:40:08;;;;;;;6.40;5.80;;;20.00;92.20;;;;;;6123072;23;20140;-81
2023/09/22 10:42:37;;;;;;;6.18;5.57;;;20.00;92.20;;;;;;6121442;23;20178;-84
2023/09/22 10:45:05;;;;;;;6.28;5.68;;;20.00;92.10;;;;;;6119875;23;20198;-81
2023/09/22 10:47:43;;;;;;;6.28;5.68;;;20.00;92.10;;;;;;6120292;23;20137;-84
2023/09/22 10:50:31;;;;;;;6.38;5.78;;;20.00;92.20;;;;;;6121429;23;20140;-81
2023/09/22 10:53:00;;;;;;;6.82;6.13;;;20.00;92.20;;;;;;6121745;23;20144;-84
2023/09/22 10:55:34;;;;;;;6.32;5.68;;;20.00;92.20;;;;;;6120266;23;20132;-84
2023/09/22 10:58:03;;;;;;;6.13;5.53;;;20.00;92.20;;;;;;6121524;23;20517;-83
2023/09/22 11:00:31;;;;;;;6.53;5.93;;;20.00;92.10;;;;;;6119945;23;20164;-81
2023/09/22 11:03:06;;;;;;;6.22;5.63;;;20.00;92.10;;;;;;6121400;23;20140;-83
2023/09/22 11:05:34;;;;;;;6.18;5.57;;;20.10;92.10;;;;;;6118950;23;20154;-81
2023/09/22 11:08:01;;;;;;;6.00;5.50;;;20.00;92.10;;;;;;6120911;23;20215;-82
2023/09/22 11:10:27;;;;;;;6.40;5.80;;;20.10;92.10;;;;;;6121491;23;20595;-83
2023/09/22 11:12:54;;;;;;;5.88;5.28;;;20.10;92.10;;;;;;6121187;23;20230;-81
2023/09/22 11:15:20;;;;;;;6.75;6.05;;;20.10;92.10;;;;;;6121799;23;20140;-82
2023/09/22 11:17:46;;;;;;;5.75;5.20;;;20.10;92.10;;;;;;6121625;23;20152;-83
2023/09/22 11:20:17;;;;;;;6.22;5.63;;;20.00;92.10;;;;;;6119678;23;20129;-84
2023/09/22 11:22:42;;;;;;;6.60;6.00;;;20.10;92.10;;;;;;6119795;23;20228;-82
2023/09/22 11:25:09;;;;;;;6.00;5.47;;;20.10;92.10;;;;;;6095384;23;20591;-81
2023/09/22 11:27:50;;;;;;;6.20;5.60;;;20.00;92.10;;;;;;6119995;23;20183;-83
2023/09/22 11:30:25;;;;;;;6.10;5.50;;;20.10;92.10;;;;;;6121425;23;20460;-83
2023/09/22 11:32:51;;;;;;;6.15;5.55;;;20.10;92.20;;;;;;6098389;23;20135;-81
2023/09/22 11:35:33;;;;;;;6.05;5.55;;;20.00;92.20;;;;;;6119334;23;20136;-81
2023/09/22 11:38:01;;;;;;;6.45;5.72;;;20.00;92.20;;;;;;6121393;23;20140;-82
2023/09/22 11:40:37;;;;;;;6.93;6.22;;;20.00;92.20;;;;;;6121124;23;20136;-83
2023/09/22 11:43:03;;;;;;;6.65;6.05;;;20.00;92.20;;;;;;6119642;23;20163;-82
2023/09/22 11:45:31;;;;;;;6.43;5.80;;;20.00;92.20;;;;;;6119800;23;20583;-82
2023/09/22 11:48:03;;;;;;;7.05;6.13;;;20.00;92.20;;;;;;6120929;23;20494;-81
2023/09/22 11:50:30;;;;;;;7.20;6.50;;;20.00;92.20;;;;;;6119638;23;20268;-81
2023/09/22 11:53:17;;;;;;;6.88;6.18;;;20.00;92.20;;;;;;6095862;23;20136;-83
2023/09/22 11:55:46;;;;;;;7.28;6.10;;;20.00;92.30;;;;;;6120161;23;20148;-81
2023/09/22 11:58:12;;;;;;;6.80;6.10;;;20.00;92.30;;;;;;6095407;23;20148;-83
2023/09/22 12:00:38;;;;;;;6.68;6.03;;;20.00;92.30;;;;;;6119587;23;20166;-81
2023/09/22 12:03:05;;;;;;;6.80;6.10;;;20.00;92.30;;;;;;6120017;23;20512;-81
2023/09/22 12:05:30;;;;;;;7.45;6.20;;;20.00;92.40;;;;;;6121385;23;20194;-82
2023/09/22 12:07:57;;;;;;;6.43;5.82;;;20.00;92.40;;;;;;6094321;23;20791;-81
2023/09/22 12:10:22;;;;;;;6.97;5.93;;;20.00;92.40;;;;;;6121226;23;20149;-81
2023/09/22 12:12:48;;;;;;;6.97;6.28;;;20.00;92.40;;;;;;6120779;23;20136;-82
2023/09/22 12:15:14;;;;;;;6.80;6.20;;;20.00;92.40;;;;;;6119608;23;20143;-83
2023/09/22 12:17:40;;;;;;;6.70;6.03;;;20.00;92.40;;;;;;6119694;23;20523;-82
2023/09/22 12:20:07;;;;;;;7.35;6.57;;;20.00;92.40;;;;;;6121697;23;20465;-84
2023/09/22 12:22:32;;;;;;;7.22;6.20;;;20.00;92.40;;;;;;6122249;23;20137;-83
2023/09/22 12:24:58;;;;;;;6.72;6.10;;;20.00;92.50;;;;;;6121893;23;20136;-83
2023/09/22 12:27:24;;;;;;;6.50;5.90;;;20.00;92.50;;;;;;6134287;22;20195;-83
2023/09/22 12:29:49;;;;;;;7.30;6.60;;;20.00;92.40;;;;;;6125752;23;20448;-81
2023/09/22 12:32:15;;;;;;;6.93;6.25;;;20.00;92.40;;;;;;6151744;22;20167;-84
2023/09/22 12:34:41;;;;;;;6.90;6.20;;;19.90;92.40;;;;;;6151468;22;20503;-83
2023/09/22 12:37:06;;;;;;;7.30;6.60;;;19.90;92.50;;;;;;6151274;22;20509;-82
2023/09/22 12:39:32;;;;;;;7.28;6.57;;;19.90;92.50;;;;;;6151541;22;20170;-85
2023/09/22 12:41:58;;;;;;;7.20;6.50;;;19.90;92.50;;;;;;6151303;23;20140;-82
2023/09/22 12:44:23;;;;;;;6.90;6.20;;;19.90;92.50;;;;;;6125891;23;20602;-82
2023/09/22 12:46:50;;;;;;;6.63;6.03;;;20.00;92.50;;;;;;6125946;23;20148;-82
2023/09/22 12:49:16;;;;;;;7.05;6.35;;;20.00;92.50;;;;;;6125866;23;20140;-81